createdAt,value
2022-10-04T00:01:27.150Z,70.77
2022-10-04T00:04:10.885Z,70.63
2022-10-04T00:06:43.190Z,70.88
2022-10-04T00:09:17.843Z,70.91
2022-10-04T00:11:47.273Z,70.89
2022-10-04T00:14:22.040Z,70.81
2022-10-04T00:16:49.155Z,71.04
2022-10-04T00:19:15.492Z,70.94
2022-10-04T00:21:53.908Z,70.72
2022-10-04T00:24:26.820Z,70.87
2022-10-04T00:26:53.120Z,70.67
2022-10-04T00:29:34.761Z,70.62
2022-10-04T00:32:10.255Z,70.53
2022-10-04T00:34:36.614Z,70.71
2022-10-04T00:37:13.102Z,70.71
2022-10-04T00:39:42.988Z,70.69
2022-10-04T00:42:43.298Z,70.59
2022-10-04T00:45:16.499Z,70.67
2022-10-04T00:47:45.954Z,70.67
2022-10-04T00:50:36.845Z,70.49
2022-10-04T00:53:14.207Z,70.55
2022-10-04T00:55:48.714Z,70.63
2022-10-04T00:58:23.773Z,70.46
2022-10-04T01:00:54.090Z,70.62
2022-10-04T01:03:35.681Z,70.41
2022-10-04T01:06:06.632Z,70.60
2022-10-04T01:08:49.456Z,70.46
2022-10-04T01:11:23.186Z,70.38
2022-10-04T01:13:58.487Z,70.58
2022-10-04T01:16:36.284Z,70.44
2022-10-04T01:19:31.357Z,70.32
2022-10-04T01:22:14.682Z,70.47
2022-10-04T01:24:43.455Z,70.72
2022-10-04T01:27:43.452Z,70.62
2022-10-04T01:30:17.081Z,70.74
2022-10-04T01:32:45.394Z,70.69
2022-10-04T01:35:14.460Z,70.93
2022-10-04T01:37:41.382Z,70.91
2022-10-04T01:40:09.835Z,70.80
2022-10-04T01:42:50.589Z,70.79
2022-10-04T01:45:29.389Z,70.87
2022-10-04T01:48:01.774Z,71.08
2022-10-04T01:50:32.742Z,70.92
2022-10-04T01:53:13.944Z,70.90
2022-10-04T01:55:42.448Z,70.84
2022-10-04T01:58:14.387Z,70.93
2022-10-04T02:00:51.107Z,70.88
2022-10-04T02:03:25.337Z,70.89
2022-10-04T02:05:54.117Z,71.03
2022-10-04T02:08:27.512Z,71.06
2022-10-04T02:10:56.357Z,70.93
2022-10-04T02:13:27.637Z,71.10
2022-10-04T02:15:54.819Z,71.24
2022-10-04T02:18:23.655Z,71.28
2022-10-04T02:20:52.259Z,71.26
2022-10-04T02:23:21.146Z,71.06
2022-10-04T02:25:47.714Z,71.11
2022-10-04T02:28:15.411Z,71.02
2022-10-04T02:31:07.353Z,70.99
2022-10-04T02:33:38.418Z,71.07
2022-10-04T02:36:07.061Z,71.03
2022-10-04T02:38:36.030Z,71.18
2022-10-04T02:41:23.128Z,70.88
2022-10-04T02:44:02.802Z,71.08
2022-10-04T02:46:36.341Z,70.93
2022-10-04T02:49:10.132Z,71.23
2022-10-04T02:51:36.457Z,71.28
2022-10-04T02:54:30.842Z,71.16
2022-10-04T02:56:58.566Z,71.16
2022-10-04T02:59:25.337Z,71.13
2022-10-04T03:01:58.430Z,71.07
2022-10-04T03:04:33.885Z,71.14
2022-10-04T03:07:04.546Z,71.33
2022-10-04T03:09:31.425Z,71.33
2022-10-04T03:11:58.003Z,71.41
2022-10-04T03:14:27.587Z,71.36
2022-10-04T03:17:00.542Z,71.32
2022-10-04T03:19:30.764Z,71.57
2022-10-04T03:22:02.012Z,71.39
2022-10-04T03:24:32.845Z,71.45
2022-10-04T03:27:03.134Z,71.49
2022-10-04T03:29:32.540Z,71.69
2022-10-04T03:32:01.672Z,71.61
2022-10-04T03:34:34.586Z,71.65
2022-10-04T03:37:02.954Z,71.80
2022-10-04T03:39:53.380Z,71.55
2022-10-04T03:42:22.995Z,71.42
2022-10-04T03:44:52.082Z,71.58
2022-10-04T03:47:30.542Z,71.78
2022-10-04T03:50:02.687Z,71.65
2022-10-04T03:52:33.710Z,71.53
2022-10-04T03:55:04.888Z,71.55
2022-10-04T03:57:32.437Z,71.58
2022-10-04T04:00:00.186Z,71.81
2022-10-04T04:02:56.656Z,71.62
2022-10-04T04:05:35.364Z,71.50
2022-10-04T04:08:12.724Z,71.74
2022-10-04T04:10:50.106Z,71.89
2022-10-04T04:13:27.098Z,71.64
2022-10-04T04:16:00.432Z,71.75
2022-10-04T04:18:32.886Z,71.63
2022-10-04T04:21:01.899Z,71.66
2022-10-04T04:23:39.654Z,71.78
2022-10-04T04:26:23.485Z,71.83
2022-10-04T04:28:56.054Z,71.82
2022-10-04T04:31:31.446Z,71.89
2022-10-04T04:34:04.151Z,71.82
2022-10-04T04:36:33.269Z,71.79
2022-10-04T04:39:34.231Z,71.89
2022-10-04T04:42:05.884Z,71.84
2022-10-04T04:44:33.112Z,71.75
2022-10-04T04:47:00.534Z,71.94
2022-10-04T04:49:30.197Z,71.88
2022-10-04T04:51:58.030Z,71.61
2022-10-04T04:54:27.214Z,71.80
2022-10-04T04:56:55.411Z,71.92
2022-10-04T04:59:23.574Z,71.71
2022-10-04T05:01:50.450Z,72.04
2022-10-04T05:04:19.945Z,71.81
2022-10-04T05:06:49.099Z,71.89
2022-10-04T05:09:37.192Z,71.75
2022-10-04T05:12:08.738Z,71.78
2022-10-04T05:14:41.089Z,71.71
2022-10-04T05:17:08.858Z,71.90
2022-10-04T05:19:39.501Z,71.81
2022-10-04T05:22:13.257Z,71.84
2022-10-04T05:33:48.100Z,71.98
2022-10-04T05:36:36.396Z,72.13
2022-10-04T05:39:13.204Z,71.97
2022-10-04T05:41:55.042Z,72.08
2022-10-04T05:44:27.040Z,72.10
2022-10-04T05:46:56.940Z,72.20
2022-10-04T05:49:26.330Z,72.14
2022-10-04T05:52:00.065Z,72.15
2022-10-04T05:54:29.471Z,72.27
2022-10-04T05:57:23.713Z,72.38
2022-10-04T06:00:09.379Z,72.21
2022-10-04T06:02:57.549Z,72.40
2022-10-04T06:05:49.030Z,72.68
2022-10-04T06:08:39.502Z,72.63
2022-10-04T06:11:31.505Z,72.68
2022-10-04T06:14:25.618Z,72.61
2022-10-04T06:17:12.062Z,72.76
2022-10-04T06:19:41.905Z,72.63
2022-10-04T06:22:26.856Z,72.84
2022-10-04T06:25:00.758Z,72.82
2022-10-04T06:27:30.411Z,72.91
2022-10-04T06:30:04.699Z,72.92
2022-10-04T06:32:52.349Z,73.08
2022-10-04T06:35:34.967Z,72.97
2022-10-04T06:38:23.603Z,73.01
2022-10-04T06:41:14.440Z,73.05
2022-10-04T06:43:49.844Z,73.17
2022-10-04T06:46:58.830Z,73.13
2022-10-04T06:49:39.039Z,73.02
2022-10-04T06:52:26.494Z,73.38
2022-10-04T06:55:28.658Z,73.51
2022-10-04T06:58:19.214Z,73.28
2022-10-04T07:01:21.373Z,73.46
2022-10-04T07:04:06.277Z,73.42
2022-10-04T07:07:26.697Z,73.58
2022-10-04T07:10:08.292Z,73.57
2022-10-04T07:12:40.422Z,73.53
2022-10-04T07:15:19.609Z,73.57
2022-10-04T07:17:49.069Z,73.61
2022-10-04T07:20:26.993Z,73.47
2022-10-04T07:23:10.387Z,73.53
2022-10-04T07:25:46.078Z,73.65
2022-10-04T07:28:38.448Z,73.69
2022-10-04T07:31:13.255Z,73.67
2022-10-04T07:33:51.590Z,73.90
2022-10-04T07:36:26.798Z,73.92
2022-10-04T07:39:00.222Z,74.02
2022-10-04T07:41:32.145Z,74.14
2022-10-04T07:44:06.452Z,74.32
2022-10-04T07:46:52.772Z,74.46
2022-10-04T07:49:21.533Z,74.60
2022-10-04T07:52:18.417Z,74.98
2022-10-04T07:55:05.518Z,74.85
2022-10-04T07:58:02.993Z,75.32
2022-10-04T08:00:49.466Z,75.33
2022-10-04T08:03:51.910Z,75.53
2022-10-04T08:06:52.687Z,75.57
2022-10-04T08:09:38.378Z,75.62
2022-10-04T08:12:17.549Z,75.60
2022-10-04T08:15:19.092Z,75.40
2022-10-04T08:18:01.206Z,75.36
2022-10-04T08:20:55.395Z,75.50
2022-10-04T08:23:53.011Z,75.84
2022-10-04T08:26:43.126Z,75.71
2022-10-04T08:29:43.287Z,75.62
2022-10-04T08:32:48.309Z,75.68
2022-10-04T08:35:34.281Z,75.70
2022-10-04T08:38:36.062Z,75.71
2022-10-04T08:41:11.745Z,75.81
2022-10-04T08:44:38.763Z,75.79
2022-10-04T08:47:11.156Z,75.67
2022-10-04T08:50:04.419Z,75.78
2022-10-04T08:53:11.561Z,75.82
2022-10-04T08:55:58.499Z,75.62
2022-10-04T08:58:46.517Z,75.72
2022-10-04T09:01:44.183Z,75.89
2022-10-04T09:04:29.401Z,75.92
2022-10-04T09:07:33.182Z,75.86
2022-10-04T09:10:24.759Z,75.86
2022-10-04T09:13:05.318Z,75.69
2022-10-04T09:15:44.360Z,75.38
2022-10-04T09:18:22.181Z,75.40
2022-10-04T09:21:01.085Z,75.53
2022-10-04T09:23:55.192Z,75.21
2022-10-04T09:26:53.979Z,75.26
2022-10-04T09:29:57.970Z,75.03
2022-10-04T09:32:49.101Z,75.15
2022-10-04T09:35:38.874Z,75.14
2022-10-04T09:38:28.965Z,74.97
2022-10-04T09:41:26.857Z,75.09
2022-10-04T09:44:27.621Z,74.88
2022-10-04T09:47:07.095Z,74.72
2022-10-04T09:49:51.769Z,74.82
2022-10-04T09:52:33.455Z,74.75
2022-10-04T09:55:36.907Z,74.47
2022-10-04T09:58:34.427Z,74.49
2022-10-04T10:04:20.851Z,74.23
2022-10-04T10:06:53.657Z,74.32
2022-10-04T10:10:09.420Z,74.16
2022-10-04T10:13:21.659Z,74.16
2022-10-04T10:16:06.430Z,73.99
2022-10-04T10:19:01.768Z,73.78
2022-10-04T10:22:03.169Z,73.90
2022-10-04T10:25:01.128Z,73.74
2022-10-04T10:27:50.472Z,73.58
2022-10-04T10:30:28.105Z,73.74
2022-10-04T10:33:38.137Z,73.67
2022-10-04T10:36:34.005Z,73.04
2022-10-04T10:39:25.957Z,73.41
2022-10-04T10:42:30.008Z,73.47
2022-10-04T10:45:47.632Z,73.20
2022-10-04T10:48:31.304Z,73.52
2022-10-04T10:51:10.755Z,73.35
2022-10-04T10:53:52.484Z,73.06
2022-10-04T10:57:06.759Z,72.80
2022-10-04T10:59:39.511Z,73.07
2022-10-04T11:02:15.228Z,72.63
2022-10-04T11:05:21.051Z,72.58
2022-10-04T11:07:55.699Z,72.54
2022-10-04T11:10:44.426Z,72.65
2022-10-04T11:13:21.586Z,72.42
2022-10-04T11:15:57.188Z,72.50
2022-10-04T11:18:42.866Z,72.18
2022-10-04T11:21:30.985Z,72.28
2022-10-04T11:24:28.873Z,72.26
2022-10-04T11:27:04.763Z,72.21
2022-10-04T11:29:31.207Z,72.42
2022-10-04T11:32:00.522Z,72.28
2022-10-04T11:34:35.250Z,71.98
2022-10-04T11:37:36.562Z,71.88
2022-10-04T11:40:06.588Z,72.01
2022-10-04T11:42:58.039Z,71.56
2022-10-04T11:45:54.127Z,71.45
2022-10-04T11:48:48.629Z,71.52
2022-10-04T11:51:42.095Z,71.45
2022-10-04T11:54:47.796Z,71.19
2022-10-04T11:57:24.446Z,71.29
2022-10-04T12:00:12.427Z,71.03
2022-10-04T12:03:02.746Z,71.13
2022-10-04T12:05:48.895Z,70.79
2022-10-04T12:08:38.467Z,70.66
2022-10-04T12:11:51.915Z,70.48
2022-10-04T12:14:24.811Z,70.55
2022-10-04T12:17:10.157Z,70.56
2022-10-04T12:20:02.013Z,70.35
2022-10-04T12:22:51.998Z,70.32
2022-10-04T12:25:37.406Z,70.05
2022-10-04T12:28:22.269Z,70.06
2022-10-04T12:30:54.697Z,70.05
2022-10-04T12:33:42.685Z,70.03
2022-10-04T12:36:31.831Z,70.02
2022-10-04T12:39:16.862Z,70.00
2022-10-04T12:41:50.580Z,69.88
2022-10-04T12:44:44.139Z,69.78
2022-10-04T12:47:28.941Z,69.86
2022-10-04T12:50:08.733Z,69.73
2022-10-04T12:53:06.868Z,69.70
2022-10-04T12:55:52.893Z,69.74
2022-10-04T12:58:44.098Z,69.68
2022-10-04T13:01:26.138Z,69.35
2022-10-04T13:04:15.032Z,68.90
2022-10-04T13:07:10.882Z,69.05
2022-10-04T13:10:22.393Z,69.20
2022-10-04T13:13:11.232Z,69.16
2022-10-04T13:18:47.521Z,68.51
2022-10-04T13:21:48.011Z,68.59
2022-10-04T13:25:02.234Z,68.71
2022-10-04T13:27:50.925Z,69.01
2022-10-04T13:30:35.520Z,68.85
2022-10-04T13:33:05.130Z,68.83
2022-10-04T13:35:46.627Z,68.33
2022-10-04T13:38:23.164Z,68.54
2022-10-04T13:41:08.619Z,68.44
2022-10-04T13:43:35.093Z,68.36
2022-10-04T13:46:20.057Z,68.28
2022-10-04T13:49:01.309Z,68.49
2022-10-04T13:51:46.556Z,68.45
2022-10-04T13:54:47.047Z,68.29
2022-10-04T13:57:26.932Z,68.21
2022-10-04T14:00:09.322Z,68.25
2022-10-04T14:03:03.635Z,68.44
2022-10-04T14:06:07.818Z,68.34
2022-10-04T14:08:48.277Z,68.00
2022-10-04T14:11:49.535Z,67.91
2022-10-04T14:14:54.183Z,67.94
2022-10-04T14:17:57.385Z,67.47
2022-10-04T14:20:42.764Z,67.57
2022-10-04T14:23:33.732Z,67.26
2022-10-04T14:26:00.273Z,67.06
2022-10-04T14:28:26.970Z,67.08
2022-10-04T14:31:12.241Z,67.29
2022-10-04T14:34:19.268Z,67.26
2022-10-04T14:37:11.590Z,67.23
2022-10-04T14:40:20.151Z,67.51
2022-10-04T14:43:17.266Z,67.46
2022-10-04T14:46:15.026Z,67.38
2022-10-04T14:49:00.460Z,67.36
2022-10-04T14:51:30.072Z,66.97
2022-10-04T14:54:29.123Z,67.45
2022-10-04T14:57:14.332Z,67.36
2022-10-04T14:59:55.056Z,67.42
2022-10-04T15:02:31.656Z,67.43
2022-10-04T15:05:32.065Z,67.37
2022-10-04T15:08:26.605Z,67.27
2022-10-04T15:11:04.911Z,67.17
2022-10-04T15:13:51.592Z,67.17
2022-10-04T15:16:52.995Z,67.40
2022-10-04T15:19:19.734Z,67.31
2022-10-04T15:21:55.350Z,67.28
2022-10-04T15:24:46.819Z,67.08
2022-10-04T15:27:34.658Z,66.75
2022-10-04T15:30:10.339Z,66.72
2022-10-04T15:32:58.384Z,67.13
2022-10-04T15:35:55.281Z,66.96
2022-10-04T15:38:32.619Z,66.91
2022-10-04T15:41:03.346Z,66.83
2022-10-04T15:43:50.082Z,66.86
2022-10-04T15:46:46.937Z,66.81
2022-10-04T15:49:25.667Z,67.04
2022-10-04T15:52:14.586Z,66.79
2022-10-04T15:55:08.975Z,67.02
2022-10-04T15:57:41.977Z,67.12
2022-10-04T16:00:15.570Z,67.09
2022-10-04T16:12:09.594Z,67.20
2022-10-04T16:14:58.847Z,67.29
2022-10-04T16:17:50.607Z,67.13
2022-10-04T16:20:34.178Z,67.39
2022-10-04T16:23:25.476Z,67.36
2022-10-04T16:25:58.076Z,67.32
2022-10-04T16:28:46.180Z,67.17
2022-10-04T16:31:24.874Z,67.40
2022-10-04T16:33:57.162Z,67.11
2022-10-04T16:36:31.923Z,67.28
2022-10-04T16:39:20.288Z,67.10
2022-10-04T16:41:59.760Z,67.20
2022-10-04T16:44:54.877Z,67.34
2022-10-04T16:47:38.231Z,67.14
2022-10-04T16:50:10.662Z,66.96
2022-10-04T16:52:56.046Z,66.98
2022-10-04T16:55:46.021Z,66.95
2022-10-04T16:58:27.727Z,66.96
2022-10-04T17:01:22.128Z,66.72
2022-10-04T17:04:00.561Z,66.74
2022-10-04T17:06:51.560Z,66.54
2022-10-04T17:09:28.710Z,66.50
2022-10-04T17:12:35.277Z,66.63
2022-10-04T17:15:16.914Z,66.66
2022-10-04T17:18:17.448Z,66.47
2022-10-04T17:20:45.480Z,66.29
2022-10-04T17:23:45.702Z,66.21
2022-10-04T17:26:30.313Z,66.23
2022-10-04T17:29:03.918Z,66.47
2022-10-04T17:31:36.216Z,66.54
2022-10-04T17:34:36.493Z,66.28
2022-10-04T17:37:21.194Z,66.27
2022-10-04T17:40:11.699Z,66.29
2022-10-04T17:43:05.164Z,66.34
2022-10-04T17:45:57.764Z,66.22
2022-10-04T17:48:48.626Z,66.28
2022-10-04T17:51:57.140Z,66.42
2022-10-04T17:54:51.284Z,66.32
2022-10-04T17:57:25.172Z,66.28
2022-10-04T18:00:00.341Z,66.33
2022-10-04T18:02:44.449Z,66.38
2022-10-04T18:05:33.325Z,66.41
2022-10-04T18:08:13.398Z,66.29
2022-10-04T18:10:50.507Z,66.50
2022-10-04T18:13:35.762Z,66.50
2022-10-04T18:16:16.405Z,66.62
2022-10-04T18:18:44.175Z,66.70
2022-10-04T18:21:22.898Z,66.67
2022-10-04T18:24:19.094Z,66.69
2022-10-04T18:27:04.839Z,66.74
2022-10-04T18:29:39.263Z,66.70
2022-10-04T18:32:27.518Z,66.52
2022-10-04T18:34:59.110Z,66.63
2022-10-04T18:37:39.061Z,66.67
2022-10-04T18:40:28.467Z,66.76
2022-10-04T18:42:57.849Z,66.84
2022-10-04T18:45:34.809Z,66.58
2022-10-04T18:48:15.601Z,66.76
2022-10-04T18:50:47.238Z,66.85
2022-10-04T18:53:43.620Z,66.81
2022-10-04T18:56:12.201Z,66.77
2022-10-04T18:59:22.174Z,66.62
2022-10-04T19:02:07.896Z,66.76
2022-10-04T19:04:45.088Z,66.72
2022-10-04T19:07:15.944Z,66.69
2022-10-04T19:10:00.897Z,66.71
2022-10-04T19:12:36.329Z,66.48
2022-10-04T19:15:23.194Z,66.81
2022-10-04T19:17:55.934Z,66.97
2022-10-04T19:20:41.434Z,66.75
2022-10-04T19:23:33.878Z,67.01
2022-10-04T19:26:31.050Z,66.96
2022-10-04T19:29:10.613Z,66.98
2022-10-04T19:31:54.561Z,67.03
2022-10-04T19:34:36.548Z,66.97
2022-10-04T19:37:14.263Z,67.26
2022-10-04T19:40:01.017Z,67.22
2022-10-04T19:43:00.140Z,67.05
2022-10-04T19:45:35.048Z,67.33
2022-10-04T19:48:08.537Z,67.28
2022-10-04T19:50:39.612Z,67.17
2022-10-04T19:53:15.065Z,67.10
2022-10-04T19:55:58.128Z,66.98
2022-10-04T19:58:41.252Z,66.98
2022-10-04T20:01:12.939Z,67.01
2022-10-04T20:03:40.202Z,67.35
2022-10-04T20:06:07.631Z,66.95
2022-10-04T20:08:51.872Z,66.94
2022-10-04T20:11:48.426Z,67.12
2022-10-04T20:14:15.226Z,67.05
2022-10-04T20:17:05.595Z,67.06
2022-10-04T20:19:37.306Z,67.45
2022-10-04T20:22:12.573Z,67.03
2022-10-04T20:24:41.919Z,67.39
2022-10-04T20:27:20.495Z,67.21
2022-10-04T20:29:51.656Z,67.44
2022-10-04T20:32:27.888Z,67.34
2022-10-04T20:34:58.412Z,67.60
2022-10-04T20:38:27.346Z,67.51
2022-10-04T20:40:47.239Z,67.63
2022-10-04T20:43:13.657Z,67.73
2022-10-04T20:45:46.069Z,67.67
2022-10-04T20:48:31.375Z,67.58
2022-10-04T20:51:07.391Z,67.74
2022-10-04T20:53:34.216Z,67.94
2022-10-04T20:56:24.704Z,67.79
2022-10-04T20:58:53.709Z,67.82
2022-10-04T21:01:38.144Z,67.97
2022-10-04T21:04:42.214Z,67.87
2022-10-04T21:07:14.244Z,68.13
2022-10-04T21:09:41.875Z,68.06
2022-10-04T21:12:31.209Z,68.18
2022-10-04T21:15:15.719Z,68.14
2022-10-04T21:17:43.491Z,68.14
2022-10-04T21:20:34.219Z,68.32
2022-10-04T21:23:16.687Z,68.30
2022-10-04T21:25:43.260Z,68.47
2022-10-04T21:28:30.950Z,68.60
2022-10-04T21:30:57.739Z,68.39
2022-10-04T21:33:24.232Z,68.67
2022-10-04T21:35:52.139Z,68.69
2022-10-04T21:38:19.505Z,68.80
2022-10-04T21:40:47.166Z,68.73
2022-10-04T21:43:13.740Z,68.81
2022-10-04T21:45:40.415Z,68.86
2022-10-04T21:48:06.904Z,68.98
2022-10-04T21:50:33.549Z,69.17
2022-10-04T21:53:00.145Z,69.20
2022-10-04T21:55:26.867Z,69.28
2022-10-04T21:57:53.423Z,69.23
2022-10-04T22:00:21.155Z,69.25
2022-10-04T22:02:47.685Z,69.24
2022-10-04T22:05:14.296Z,69.23
2022-10-04T22:07:40.836Z,69.38
2022-10-04T22:10:07.655Z,69.27
2022-10-04T22:12:34.204Z,69.34
2022-10-04T22:15:00.940Z,69.17
2022-10-04T22:17:27.457Z,69.31
2022-10-04T22:19:53.954Z,69.37
2022-10-04T22:22:20.432Z,69.49
2022-10-04T22:24:46.912Z,69.25
2022-10-04T22:27:15.669Z,69.25
2022-10-04T22:29:42.836Z,69.28
2022-10-04T22:32:23.658Z,69.13
2022-10-04T22:34:51.682Z,69.07
2022-10-04T22:37:24.156Z,69.29
2022-10-04T22:39:52.122Z,69.22
2022-10-04T22:42:19.472Z,69.13
2022-10-04T22:44:46.064Z,69.20
2022-10-04T22:47:15.333Z,69.17
2022-10-04T22:49:44.492Z,69.12
2022-10-04T22:52:23.156Z,68.98
2022-10-04T22:54:52.081Z,69.10
2022-10-04T22:57:20.119Z,69.17
2022-10-04T22:59:49.768Z,69.13
2022-10-04T23:02:24.383Z,69.00
2022-10-04T23:04:54.580Z,68.92
2022-10-04T23:07:22.141Z,69.09
2022-10-04T23:09:49.223Z,69.34
2022-10-04T23:12:16.256Z,69.21
2022-10-04T23:14:45.301Z,69.35
2022-10-04T23:17:39.404Z,69.22
2022-10-04T23:20:09.039Z,69.26
2022-10-04T23:22:35.715Z,69.46
2022-10-04T23:25:02.450Z,69.59
2022-10-04T23:27:29.333Z,69.44
2022-10-04T23:30:02.786Z,69.52
2022-10-04T23:32:31.318Z,69.50
2022-10-04T23:34:58.885Z,69.57
2022-10-04T23:37:30.697Z,69.33
2022-10-04T23:39:57.359Z,69.67
2022-10-04T23:42:31.832Z,69.57
2022-10-04T23:45:00.163Z,69.56
2022-10-04T23:47:34.990Z,69.43
2022-10-04T23:50:07.325Z,69.52
2022-10-04T23:52:39.729Z,69.70
2022-10-04T23:55:22.370Z,69.65
2022-10-04T23:57:49.326Z,69.58
